createdAt,value
2018-01-25T00:00:08.823Z,1.40
2018-01-25T00:02:37.087Z,1.65
2018-01-25T00:05:05.362Z,1.30
2018-01-25T00:07:33.687Z,1.42
2018-01-25T00:10:01.318Z,3.08
2018-01-25T00:12:29.614Z,1.00
2018-01-25T00:14:57.132Z,1.55
2018-01-25T00:17:25.410Z,1.15
2018-01-25T00:19:53.040Z,1.80
2018-01-25T00:22:20.537Z,1.37
2018-01-25T00:24:48.801Z,1.35
2018-01-25T00:27:17.149Z,1.40
2018-01-25T00:29:44.852Z,2.03
2018-01-25T00:32:12.402Z,1.00
2018-01-25T00:34:40.658Z,1.45
2018-01-25T00:37:08.167Z,1.10
2018-01-25T00:39:35.698Z,1.50
2018-01-25T00:42:03.271Z,2.83
2018-01-25T00:44:30.783Z,1.52
2018-01-25T00:46:58.336Z,1.20
2018-01-25T00:49:25.783Z,1.42
2018-01-25T00:51:53.272Z,1.98
2018-01-25T00:54:20.762Z,2.60
2018-01-25T00:56:48.244Z,1.50
2018-01-25T00:59:15.795Z,2.28
2018-01-25T01:01:43.526Z,4.20
2018-01-25T01:04:11.042Z,2.90
2018-01-25T01:06:38.526Z,3.22
2018-01-25T01:09:06.022Z,1.87
2018-01-25T01:11:33.515Z,2.30
2018-01-25T01:14:01.182Z,1.83
2018-01-25T01:16:28.808Z,2.25
2018-01-25T01:18:56.454Z,3.42
2018-01-25T01:21:24.218Z,5.25
2018-01-25T01:23:51.909Z,2.25
2018-01-25T01:26:19.410Z,2.03
2018-01-25T01:28:47.057Z,4.70
2018-01-25T01:31:14.728Z,2.85
2018-01-25T01:33:43.106Z,2.90
2018-01-25T01:36:10.645Z,1.70
2018-01-25T01:38:38.295Z,2.62
2018-01-25T01:41:06.257Z,3.25
2018-01-25T01:43:33.861Z,3.08
2018-01-25T01:46:01.603Z,4.28
2018-01-25T01:48:29.178Z,2.87
2018-01-25T01:50:56.817Z,3.25
2018-01-25T01:53:24.519Z,3.55
2018-01-25T01:55:52.130Z,2.70
2018-01-25T01:58:19.749Z,3.65
2018-01-25T02:00:47.390Z,3.47
2018-01-25T02:03:15.124Z,4.12
2018-01-25T02:05:42.801Z,5.87
2018-01-25T02:08:10.423Z,4.03
2018-01-25T02:10:38.129Z,4.78
2018-01-25T02:13:05.829Z,4.85
2018-01-25T02:15:33.426Z,6.15
2018-01-25T02:18:01.121Z,6.78
2018-01-25T02:20:28.651Z,6.95
2018-01-25T02:22:56.218Z,6.55
2018-01-25T02:25:23.862Z,9.40
2018-01-25T02:27:52.212Z,9.93
2018-01-25T02:30:19.815Z,9.73
2018-01-25T02:32:47.437Z,10.75
2018-01-25T02:35:15.040Z,9.48
2018-01-25T02:37:42.619Z,10.07
2018-01-25T02:40:10.265Z,9.32
2018-01-25T02:42:37.913Z,9.90
2018-01-25T02:45:05.530Z,10.13
2018-01-25T02:47:33.167Z,11.40
2018-01-25T02:50:00.930Z,9.77
2018-01-25T02:52:28.488Z,9.30
2018-01-25T02:54:56.238Z,8.60
2018-01-25T02:57:24.547Z,8.48
2018-01-25T02:59:52.895Z,8.02
2018-01-25T03:02:20.475Z,9.07
2018-01-25T03:04:48.136Z,7.20
2018-01-25T03:07:15.762Z,7.60
2018-01-25T03:09:43.438Z,6.62
2018-01-25T03:12:10.989Z,5.95
2018-01-25T03:14:38.565Z,6.40
2018-01-25T03:17:06.252Z,7.62
2018-01-25T03:19:34.616Z,5.75
2018-01-25T03:22:02.375Z,6.80
2018-01-25T03:24:30.006Z,5.47
2018-01-25T03:26:57.781Z,5.50
2018-01-25T03:29:25.557Z,7.35
2018-01-25T03:31:53.181Z,4.37
2018-01-25T03:34:20.761Z,4.10
2018-01-25T03:36:48.285Z,5.37
2018-01-25T03:39:16.537Z,3.90
2018-01-25T03:41:44.067Z,3.62
2018-01-25T03:44:11.574Z,10.18
2018-01-25T03:46:39.814Z,4.22
2018-01-25T03:49:07.301Z,7.95
2018-01-25T03:51:34.916Z,4.35
2018-01-25T03:54:02.562Z,7.70
2018-01-25T03:56:30.838Z,6.00
2018-01-25T03:58:58.404Z,5.57
2018-01-25T04:01:25.886Z,7.40
2018-01-25T04:03:53.374Z,4.78
2018-01-25T04:06:21.131Z,8.40
2018-01-25T04:08:48.609Z,9.48
2018-01-25T04:11:16.228Z,3.40
2018-01-25T04:13:43.978Z,12.40
2018-01-25T04:16:11.570Z,7.05
2018-01-25T04:18:39.217Z,8.07
2018-01-25T04:21:06.976Z,5.32
2018-01-25T04:23:34.638Z,4.55
2018-01-25T04:26:02.274Z,5.30
2018-01-25T04:28:29.765Z,9.07
2018-01-25T04:30:57.320Z,4.95
2018-01-25T04:33:25.743Z,5.15
2018-01-25T04:35:53.952Z,8.98
2018-01-25T04:38:21.743Z,5.12
2018-01-25T04:40:49.402Z,4.75
2018-01-25T04:43:17.023Z,10.65
2018-01-25T04:45:45.427Z,6.85
2018-01-25T04:48:13.138Z,9.30
2018-01-25T04:50:40.818Z,11.32
2018-01-25T04:53:09.242Z,15.60
2018-01-25T04:55:36.859Z,9.43
2018-01-25T04:58:05.282Z,6.93
2018-01-25T05:00:32.978Z,12.07
2018-01-25T05:03:00.551Z,7.60
2018-01-25T05:05:28.165Z,10.98
2018-01-25T05:07:55.725Z,8.25
2018-01-25T05:10:24.198Z,9.27
2018-01-25T05:12:51.900Z,10.40
2018-01-25T05:15:19.492Z,11.32
2018-01-25T05:18:01.969Z,7.97
2018-01-25T05:20:30.359Z,7.95
2018-01-25T05:22:59.374Z,12.23
2018-01-25T05:25:27.836Z,8.60
2018-01-25T05:27:55.408Z,6.78
2018-01-25T05:30:23.767Z,6.87
2018-01-25T05:32:52.170Z,8.18
2018-01-25T05:35:19.851Z,4.03
2018-01-25T05:37:48.340Z,5.15
2018-01-25T05:40:15.892Z,9.35
2018-01-25T05:42:43.459Z,6.70
2018-01-25T05:45:11.026Z,4.25
2018-01-25T05:47:38.608Z,6.20
2018-01-25T05:50:06.896Z,5.97
2018-01-25T05:52:34.577Z,8.38
2018-01-25T05:55:02.268Z,6.90
2018-01-25T05:57:30.114Z,4.10
2018-01-25T05:59:57.674Z,9.15
2018-01-25T06:02:26.198Z,6.53
2018-01-25T06:04:53.718Z,6.68
2018-01-25T06:07:21.262Z,5.53
2018-01-25T06:09:49.697Z,7.22
2018-01-25T06:12:17.415Z,5.93
2018-01-25T06:14:45.068Z,6.82
2018-01-25T06:17:12.683Z,9.18
2018-01-25T06:19:40.291Z,12.73
2018-01-25T06:22:08.919Z,7.15
2018-01-25T06:24:37.310Z,5.80
2018-01-25T06:27:04.920Z,7.55
2018-01-25T06:29:32.574Z,7.22
2018-01-25T06:32:00.168Z,10.77
2018-01-25T06:34:29.061Z,12.07
2018-01-25T06:36:56.732Z,8.65
2018-01-25T06:39:24.377Z,12.52
2018-01-25T06:41:52.169Z,11.73
2018-01-25T06:44:20.808Z,6.18
2018-01-25T06:46:49.367Z,20.05
2018-01-25T06:49:17.906Z,6.05
2018-01-25T06:51:45.681Z,8.45
2018-01-25T06:54:13.580Z,8.90
2018-01-25T06:56:42.067Z,7.78
2018-01-25T06:59:09.901Z,5.32
2018-01-25T07:01:39.301Z,5.22
2018-01-25T07:04:07.733Z,9.13
2018-01-25T07:06:36.160Z,5.75
2018-01-25T07:09:03.905Z,9.38
2018-01-25T07:11:31.764Z,8.77
2018-01-25T07:13:59.338Z,17.30
2018-01-25T07:16:27.000Z,9.45
2018-01-25T07:18:54.528Z,11.90
2018-01-25T07:21:22.137Z,9.68
2018-01-25T07:23:49.767Z,12.90
2018-01-25T07:26:17.278Z,10.98
2018-01-25T07:28:44.756Z,6.97
2018-01-25T07:31:13.035Z,11.25
2018-01-25T07:33:41.278Z,6.18
2018-01-25T07:36:08.905Z,6.62
2018-01-25T07:38:36.468Z,10.43
2018-01-25T07:41:04.046Z,8.60
2018-01-25T07:43:31.604Z,7.70
2018-01-25T07:45:59.954Z,10.50
2018-01-25T07:48:27.434Z,7.22
2018-01-25T07:50:55.284Z,11.70
2018-01-25T07:53:22.926Z,12.32
2018-01-25T07:55:50.410Z,8.57
2018-01-25T07:58:24.047Z,12.88
2018-01-25T08:00:51.579Z,5.95
2018-01-25T08:03:19.057Z,11.70
2018-01-25T08:05:46.677Z,6.90
2018-01-25T08:08:14.185Z,7.00
2018-01-25T08:10:41.734Z,7.80
2018-01-25T08:13:14.790Z,11.48
2018-01-25T08:15:42.347Z,10.38
2018-01-25T08:18:10.685Z,8.75
2018-01-25T08:20:38.961Z,10.20
2018-01-25T08:23:07.254Z,5.80
2018-01-25T08:25:34.757Z,4.90
2018-01-25T08:28:02.400Z,5.78
2018-01-25T08:30:29.918Z,8.40
2018-01-25T08:32:58.177Z,8.40
2018-01-25T08:35:25.784Z,12.70
2018-01-25T08:37:53.302Z,10.15
2018-01-25T08:40:20.908Z,9.52
2018-01-25T08:42:48.384Z,6.80
2018-01-25T08:45:15.857Z,9.60
2018-01-25T08:47:43.438Z,8.40
2018-01-25T08:50:11.779Z,5.18
2018-01-25T08:52:39.274Z,11.82
2018-01-25T08:55:07.765Z,6.65
2018-01-25T08:57:35.321Z,8.25
2018-01-25T09:00:03.638Z,6.25
2018-01-25T09:02:31.565Z,6.15
2018-01-25T09:04:59.084Z,6.15
2018-01-25T09:07:26.577Z,6.45
2018-01-25T09:09:55.172Z,6.32
2018-01-25T09:12:23.441Z,7.53
2018-01-25T09:14:50.934Z,10.82
2018-01-25T09:17:18.573Z,8.85
2018-01-25T09:19:46.061Z,6.95
2018-01-25T09:22:13.701Z,10.30
2018-01-25T09:24:41.220Z,7.78
2018-01-25T09:27:08.698Z,5.00
2018-01-25T09:29:37.040Z,8.95
2018-01-25T09:32:04.582Z,6.30
2018-01-25T09:34:32.207Z,9.38
2018-01-25T09:37:00.489Z,8.23
2018-01-25T09:39:28.155Z,7.62
2018-01-25T09:41:55.818Z,10.05
2018-01-25T09:44:23.333Z,11.00
2018-01-25T09:46:51.076Z,10.18
2018-01-25T09:49:18.762Z,6.20
2018-01-25T09:51:46.262Z,12.80
2018-01-25T09:54:13.831Z,9.05
2018-01-25T09:56:41.426Z,7.90
2018-01-25T09:59:09.096Z,9.20
2018-01-25T10:01:37.568Z,11.30
2018-01-25T10:04:05.811Z,6.35
2018-01-25T10:06:33.302Z,10.88
2018-01-25T10:09:00.862Z,7.00
2018-01-25T10:11:28.349Z,11.18
2018-01-25T10:13:56.602Z,8.65
2018-01-25T10:16:25.004Z,9.45
2018-01-25T10:18:52.510Z,7.65
2018-01-25T10:21:19.993Z,6.12
2018-01-25T10:23:48.415Z,10.00
2018-01-25T10:26:15.971Z,11.85
2018-01-25T10:28:43.591Z,15.38
2018-01-25T10:31:11.287Z,12.60
2018-01-25T10:33:38.810Z,4.37
2018-01-25T10:36:06.552Z,6.65
2018-01-25T10:38:34.889Z,11.63
2018-01-25T10:41:03.329Z,7.22
2018-01-25T10:43:30.918Z,10.97
2018-01-25T10:45:59.400Z,8.95
2018-01-25T10:48:26.926Z,13.70
2018-01-25T10:50:54.479Z,7.85
2018-01-25T10:53:22.093Z,4.40
2018-01-25T10:55:50.424Z,7.68
2018-01-25T10:58:17.938Z,21.62
2018-01-25T11:00:51.173Z,10.27
2018-01-25T11:03:19.007Z,8.57
2018-01-25T11:05:47.299Z,11.07
2018-01-25T11:08:14.834Z,11.52
2018-01-25T11:10:42.371Z,7.40
2018-01-25T11:13:10.022Z,10.13
2018-01-25T11:15:37.639Z,14.45
2018-01-25T11:18:05.344Z,8.02
2018-01-25T11:20:32.976Z,9.15
2018-01-25T11:23:00.643Z,6.68
2018-01-25T11:25:28.242Z,12.27
2018-01-25T11:27:55.819Z,9.82
2018-01-25T11:30:23.329Z,11.10
2018-01-25T11:32:50.834Z,10.45
2018-01-25T11:35:19.153Z,10.43
2018-01-25T11:37:47.574Z,11.05
2018-01-25T11:40:15.091Z,9.63
2018-01-25T11:42:42.582Z,6.35
2018-01-25T11:45:10.105Z,11.43
2018-01-25T11:47:37.593Z,15.43
2018-01-25T11:50:05.334Z,6.50
2018-01-25T11:52:32.956Z,12.05
2018-01-25T11:55:00.462Z,8.77
2018-01-25T11:57:28.134Z,13.52
2018-01-25T11:59:55.872Z,10.35
2018-01-25T12:02:23.377Z,8.18
2018-01-25T12:04:51.007Z,10.40
2018-01-25T12:07:18.553Z,6.37
2018-01-25T12:09:46.117Z,9.50
2018-01-25T12:12:13.726Z,17.67
2018-01-25T12:14:42.245Z,10.80
2018-01-25T12:17:09.915Z,11.95
2018-01-25T12:19:38.326Z,15.00
2018-01-25T12:22:05.943Z,10.85
2018-01-25T12:24:33.520Z,7.25
2018-01-25T12:27:01.064Z,18.02
2018-01-25T12:29:29.438Z,12.13
2018-01-25T12:31:57.778Z,9.50
2018-01-25T12:34:25.322Z,9.48
2018-01-25T12:36:53.083Z,7.20
2018-01-25T12:39:20.659Z,7.47
2018-01-25T12:41:48.914Z,9.75
2018-01-25T12:44:16.426Z,10.52
2018-01-25T12:46:43.922Z,10.70
2018-01-25T12:49:12.321Z,9.20
2018-01-25T12:51:40.232Z,20.25
2018-01-25T12:54:07.888Z,12.77
2018-01-25T12:56:36.149Z,8.13
2018-01-25T12:59:03.710Z,12.77
2018-01-25T13:01:32.026Z,10.65
2018-01-25T13:04:00.478Z,10.83
2018-01-25T13:06:27.982Z,18.25
2018-01-25T13:08:55.501Z,8.93
2018-01-25T13:11:22.998Z,19.48
2018-01-25T13:13:50.826Z,9.35
2018-01-25T13:16:18.334Z,9.40
2018-01-25T13:18:45.823Z,10.32
2018-01-25T13:21:14.310Z,9.13
2018-01-25T13:23:42.553Z,14.07
2018-01-25T13:26:10.170Z,7.07
2018-01-25T13:28:37.721Z,6.78
2018-01-25T13:31:05.214Z,10.70
2018-01-25T13:33:39.374Z,10.98
2018-01-25T13:36:08.532Z,18.90
2018-01-25T13:38:36.023Z,11.02
2018-01-25T13:41:04.370Z,10.07
2018-01-25T13:43:31.943Z,7.45
2018-01-25T13:45:59.465Z,10.95
2018-01-25T13:48:27.140Z,9.35
2018-01-25T13:50:54.790Z,7.80
2018-01-25T13:53:22.317Z,14.18
2018-01-25T13:55:49.866Z,8.15
2018-01-25T13:58:18.126Z,12.60
2018-01-25T14:00:45.711Z,11.68
2018-01-25T14:03:13.978Z,13.25
2018-01-25T14:05:42.299Z,13.98
2018-01-25T14:08:09.850Z,13.65
2018-01-25T14:10:37.485Z,8.77
2018-01-25T14:13:05.733Z,11.43
2018-01-25T14:15:33.225Z,10.60
2018-01-25T14:18:00.741Z,11.15
2018-01-25T14:20:28.380Z,9.95
2018-01-25T14:22:56.859Z,16.60
2018-01-25T14:25:24.615Z,12.65
2018-01-25T14:27:52.733Z,12.65
2018-01-25T14:30:21.170Z,8.43
2018-01-25T14:32:48.834Z,14.57
2018-01-25T14:35:16.491Z,11.07
2018-01-25T14:37:44.074Z,12.30
2018-01-25T14:40:11.738Z,18.90
2018-01-25T14:42:39.307Z,22.45
2018-01-25T14:45:06.798Z,12.98
2018-01-25T14:47:34.394Z,13.23
2018-01-25T14:50:02.017Z,12.45
2018-01-25T14:52:29.506Z,10.70
2018-01-25T14:54:57.216Z,7.82
2018-01-25T14:57:25.167Z,13.18
2018-01-25T14:59:52.662Z,11.43
2018-01-25T15:02:22.265Z,11.50
2018-01-25T15:04:49.782Z,12.60
2018-01-25T15:07:17.278Z,19.75
2018-01-25T15:09:45.556Z,12.20
2018-01-25T15:12:13.066Z,12.07
2018-01-25T15:14:41.269Z,11.12
2018-01-25T15:17:08.775Z,11.55
2018-01-25T15:19:37.007Z,12.68
2018-01-25T15:22:04.481Z,10.18
2018-01-25T15:24:33.065Z,5.78
2018-01-25T15:27:01.487Z,10.07
2018-01-25T15:29:29.014Z,10.07
2018-01-25T15:31:56.563Z,13.95
2018-01-25T15:34:24.918Z,9.95
2018-01-25T15:36:53.012Z,10.20
2018-01-25T15:39:21.493Z,6.97
2018-01-25T15:41:50.038Z,7.40
2018-01-25T15:44:17.620Z,6.00
2018-01-25T15:46:45.761Z,8.20
2018-01-25T15:49:13.305Z,7.28
2018-01-25T15:51:42.423Z,7.00
2018-01-25T15:54:11.094Z,11.70
2018-01-25T15:56:38.748Z,5.53
2018-01-25T15:59:07.374Z,7.50
2018-01-25T16:01:35.006Z,11.65
2018-01-25T16:04:03.171Z,8.48
2018-01-25T16:06:30.649Z,6.60
2018-01-25T16:08:58.334Z,7.53
2018-01-25T16:11:25.830Z,11.18
2018-01-25T16:13:53.527Z,9.45
2018-01-25T16:16:21.168Z,6.40
2018-01-25T16:18:48.667Z,12.00
2018-01-25T16:21:16.254Z,11.80
2018-01-25T16:23:44.187Z,10.57
2018-01-25T16:26:11.671Z,10.20
2018-01-25T16:28:40.122Z,11.57
2018-01-25T16:31:07.717Z,11.75
2018-01-25T16:33:36.003Z,12.20
2018-01-25T16:36:04.327Z,5.72
2018-01-25T16:38:32.072Z,10.63
2018-01-25T16:40:59.589Z,10.55
2018-01-25T16:43:27.870Z,10.05
2018-01-25T16:45:56.318Z,12.65
2018-01-25T16:48:23.885Z,9.20
2018-01-25T16:50:51.409Z,10.68
2018-01-25T16:53:18.981Z,16.73
2018-01-25T16:55:46.521Z,12.68
2018-01-25T16:58:14.911Z,12.68
2018-01-25T17:00:43.694Z,9.55
2018-01-25T17:03:12.790Z,11.52
2018-01-25T17:05:40.793Z,12.30
2018-01-25T17:08:08.382Z,13.85
2018-01-25T17:10:37.219Z,11.50
2018-01-25T17:13:05.022Z,15.45
2018-01-25T17:15:32.576Z,10.48
2018-01-25T17:18:00.058Z,20.40
2018-01-25T17:20:28.302Z,12.93
2018-01-25T17:22:55.833Z,10.88
2018-01-25T17:25:23.314Z,8.77
2018-01-25T17:27:51.809Z,8.65
2018-01-25T17:30:19.393Z,9.55
2018-01-25T17:32:46.923Z,11.07
2018-01-25T17:35:14.457Z,8.40
2018-01-25T17:37:43.906Z,11.40
2018-01-25T17:40:11.587Z,10.32
2018-01-25T17:42:39.171Z,7.82
2018-01-25T17:45:06.948Z,13.20
2018-01-25T17:47:34.609Z,7.82
2018-01-25T17:50:02.118Z,7.25
2018-01-25T17:52:30.604Z,8.77
2018-01-25T17:54:58.366Z,9.40
2018-01-25T17:57:26.041Z,9.77
2018-01-25T17:59:53.581Z,9.05
2018-01-25T18:02:21.967Z,7.82
2018-01-25T18:04:51.938Z,7.10
2018-01-25T18:07:20.413Z,8.15
2018-01-25T18:09:48.518Z,9.73
2018-01-25T18:12:18.362Z,6.05
2018-01-25T18:14:46.237Z,11.23
2018-01-25T18:17:15.194Z,15.38
2018-01-25T18:19:45.741Z,10.75
2018-01-25T18:22:16.039Z,8.45
2018-01-25T18:24:43.707Z,11.98
2018-01-25T18:27:12.304Z,10.10
2018-01-25T18:29:40.964Z,9.45
2018-01-25T18:32:10.988Z,11.07
2018-01-25T18:34:42.009Z,13.90
2018-01-25T18:37:11.434Z,10.90
2018-01-25T18:39:40.698Z,15.50
2018-01-25T18:42:09.052Z,14.00
2018-01-25T18:44:36.841Z,16.35
2018-01-25T18:47:04.677Z,12.73
2018-01-25T18:49:32.403Z,10.80
2018-01-25T18:52:00.034Z,11.40
2018-01-25T18:54:27.640Z,17.30
2018-01-25T18:56:56.205Z,21.33
2018-01-25T18:59:23.755Z,11.20
2018-01-25T19:01:51.303Z,15.30
2018-01-25T19:04:18.837Z,18.92
2018-01-25T19:06:47.937Z,15.98
2018-01-25T19:09:17.810Z,17.25
2018-01-25T19:11:46.251Z,15.52
2018-01-25T19:14:14.465Z,16.77
2018-01-25T19:16:43.150Z,16.40
2018-01-25T19:19:11.552Z,18.10
2018-01-25T19:21:39.126Z,17.83
2018-01-25T19:24:06.836Z,14.77
2018-01-25T19:26:35.230Z,16.77
2018-01-25T19:29:02.835Z,19.15
2018-01-25T19:31:30.424Z,14.20
2018-01-25T19:33:58.233Z,14.02
2018-01-25T19:36:25.930Z,23.77
2018-01-25T19:38:53.686Z,20.33
2018-01-25T19:41:21.355Z,19.30
2018-01-25T19:43:48.879Z,22.87
2018-01-25T19:46:17.318Z,26.52
2018-01-25T19:48:45.769Z,24.08
2018-01-25T19:51:16.239Z,17.12
2018-01-25T19:53:44.620Z,19.12
2018-01-25T19:56:12.293Z,17.62
2018-01-25T19:58:40.008Z,28.95
2018-01-25T20:01:07.647Z,19.27
2018-01-25T20:06:20.196Z,18.48
2018-01-25T20:08:50.415Z,21.55
2018-01-25T20:11:20.406Z,18.05
2018-01-25T20:13:47.886Z,19.85
2018-01-25T20:16:15.510Z,21.40
2018-01-25T20:21:21.923Z,22.48
2018-01-25T20:23:49.413Z,19.65
2018-01-25T20:26:16.907Z,20.27
2018-01-25T20:28:45.198Z,18.27
2018-01-25T20:31:12.694Z,22.48
2018-01-25T20:33:47.173Z,27.50
2018-01-25T20:36:14.870Z,30.10
2018-01-25T20:38:43.244Z,28.38
2018-01-25T20:41:10.734Z,20.00
2018-01-25T20:43:41.119Z,19.15
2018-01-25T20:46:09.175Z,19.98
2018-01-25T20:48:36.658Z,19.15
2018-01-25T20:51:04.407Z,26.87
2018-01-25T20:53:31.982Z,22.10
2018-01-25T20:55:59.517Z,19.12
2018-01-25T20:58:27.190Z,25.37
2018-01-25T21:00:54.711Z,24.37
2018-01-25T21:03:22.718Z,27.58
2018-01-25T21:05:51.117Z,19.23
2018-01-25T21:08:21.617Z,21.80
2018-01-25T21:10:50.377Z,25.00
2018-01-25T21:13:19.114Z,21.27
2018-01-25T21:15:59.577Z,23.70
2018-01-25T21:18:28.437Z,26.33
2018-01-25T21:20:55.993Z,29.12
2018-01-25T21:23:24.755Z,27.80
2018-01-25T21:25:57.983Z,24.52
2018-01-25T21:28:26.282Z,22.55
2018-01-25T21:30:53.919Z,19.90
2018-01-25T21:33:21.481Z,24.30
2018-01-25T21:35:48.994Z,18.62
2018-01-25T21:38:16.672Z,18.73
2018-01-25T21:40:44.976Z,23.02
2018-01-25T21:43:12.604Z,24.63
2018-01-25T21:45:43.225Z,20.90
2018-01-25T21:48:11.110Z,21.70
2018-01-25T21:50:38.935Z,18.20
2018-01-25T21:53:06.780Z,22.10
2018-01-25T21:55:42.025Z,21.52
2018-01-25T21:58:09.963Z,26.75
2018-01-25T22:00:39.935Z,23.23
2018-01-25T22:03:09.746Z,25.12
2018-01-25T22:05:43.854Z,22.33
2018-01-25T22:08:12.623Z,21.02
2018-01-25T22:10:40.210Z,19.90
2018-01-25T22:13:08.515Z,17.95
2018-01-25T22:15:36.081Z,19.05
2018-01-25T22:18:03.585Z,21.37
2018-01-25T22:20:31.279Z,18.83
2018-01-25T22:22:59.231Z,19.58
2018-01-25T22:25:29.164Z,18.40
2018-01-25T22:27:56.887Z,23.35
2018-01-25T22:30:24.452Z,18.27
2018-01-25T22:32:52.152Z,23.45
2018-01-25T22:35:19.775Z,17.52
2018-01-25T22:37:48.283Z,25.33
2018-01-25T22:40:26.701Z,20.05
2018-01-25T22:42:54.412Z,23.10
2018-01-25T22:45:21.958Z,24.67
2018-01-25T22:47:50.390Z,25.02
2018-01-25T22:50:18.121Z,19.17
2018-01-25T22:52:46.857Z,20.52
2018-01-25T22:55:15.676Z,21.20
2018-01-25T22:57:43.688Z,22.70
2018-01-25T23:00:28.575Z,26.73
2018-01-25T23:02:56.607Z,20.00
2018-01-25T23:05:24.179Z,22.20
2018-01-25T23:07:51.665Z,24.65
2018-01-25T23:10:19.149Z,20.60
2018-01-25T23:12:47.430Z,18.60
2018-01-25T23:15:17.033Z,20.08
2018-01-25T23:17:45.353Z,15.05
2018-01-25T23:20:12.994Z,28.95
2018-01-25T23:22:40.585Z,24.63
2018-01-25T23:25:08.124Z,21.42
2018-01-25T23:27:35.744Z,20.48
2018-01-25T23:30:04.265Z,23.90
2018-01-25T23:32:31.882Z,21.35
2018-01-25T23:34:59.513Z,23.25
2018-01-25T23:37:27.110Z,28.27
2018-01-25T23:39:54.831Z,21.25
2018-01-25T23:42:22.455Z,25.80
2018-01-25T23:44:50.117Z,29.63
2018-01-25T23:47:18.551Z,24.30
2018-01-25T23:49:46.178Z,25.48
2018-01-25T23:52:13.806Z,29.60
2018-01-25T23:54:41.381Z,27.98
2018-01-25T23:57:09.756Z,22.85
2018-01-25T23:59:38.115Z,25.85
